Time,TemperatureF,DewpointF,PressureIn,WindDirection,WindDirectionDegrees,WindSpeedMPH,WindSpeedGustMPH,Humidity,HourlyPrecipIn,Conditions,Clouds,dailyrainin,SoftwareType,DateUTC
2013-02-17 00:05:00,25.5,24.5,29.98,WSW,252,0.0,0.0,96,0.00,,,0.00,Wunderground v.1.15,2013-02-17 08:05:00,
2013-02-17 00:15:00,25.0,24.0,29.98,WSW,252,0.0,0.0,96,0.00,,,0.00,Wunderground v.1.15,2013-02-17 08:15:00,
2013-02-17 00:20:00,24.7,23.7,29.98,WSW,252,0.0,0.0,96,0.00,,,0.00,Wunderground v.1.15,2013-02-17 08:20:00,
2013-02-17 00:25:00,24.5,23.5,29.99,WSW,252,0.0,0.0,96,0.00,,,0.00,Wunderground v.1.15,2013-02-17 08:25:00,
2013-02-17 00:30:00,24.3,23.3,29.99,WSW,252,0.0,0.0,96,0.00,,,0.00,Wunderground v.1.15,2013-02-17 08:30:00,
2013-02-17 00:40:00,24.5,23.5,29.99,SE,142,0.0,0.0,96,0.00,,,0.00,Wunderground v.1.15,2013-02-17 08:40:00,
2013-02-17 00:45:00,24.4,23.4,29.99,SE,142,0.0,0.0,96,0.00,,,0.00,Wunderground v.1.15,2013-02-17 08:45:00,
2013-02-17 00:50:00,24.1,23.1,30.00,ESE,123,0.0,0.0,96,0.00,,,0.00,Wunderground v.1.15,2013-02-17 08:50:00,
2013-02-17 00:55:00,24.3,23.3,29.99,ESE,122,0.0,0.0,96,0.00,,,0.00,Wunderground v.1.15,2013-02-17 08:55:00,
2013-02-17 01:00:00,24.6,23.6,29.99,ESE,122,0.0,0.0,96,0.00,,,0.00,Wunderground v.1.15,2013-02-17 09:00:00,
2013-02-17 01:05:00,24.5,23.5,30.00,ESE,122,0.0,0.0,96,0.00,,,0.00,Wunderground v.1.15,2013-02-17 09:05:00,
2013-02-17 01:15:00,24.6,23.6,30.00,ESE,122,0.0,0.0,96,0.00,,,0.00,Wunderground v.1.15,2013-02-17 09:15:00,
2013-02-17 01:20:00,24.6,23.6,30.00,SSE,167,0.0,0.0,96,0.00,,,0.00,Wunderground v.1.15,2013-02-17 09:20:00,
2013-02-17 01:25:00,24.6,23.6,30.00,SSE,167,0.0,0.0,96,0.00,,,0.00,Wunderground v.1.15,2013-02-17 09:25:00,
2013-02-17 01:30:00,24.8,23.8,30.00,WSW,238,0.0,0.0,96,0.00,,,0.00,Wunderground v.1.15,2013-02-17 09:30:00,
2013-02-17 01:35:00,25.8,24.8,29.99,SW,214,0.0,0.0,96,0.00,,,0.00,Wunderground v.1.15,2013-02-17 09:35:00,
2013-02-17 01:40:00,26.6,25.9,29.99,NNE,22,0.0,0.0,97,0.00,,,0.00,Wunderground v.1.15,2013-02-17 09:40:00,
2013-02-17 01:45:00,27.5,26.8,30.00,North,351,0.0,0.0,97,0.00,,,0.00,Wunderground v.1.15,2013-02-17 09:45:00,
2013-02-17 01:50:00,27.9,27.2,30.00,NNE,30,0.0,0.0,97,0.00,,,0.00,Wunderground v.1.15,2013-02-17 09:50:00,
2013-02-17 01:55:00,27.4,26.7,30.00,NNE,27,0.0,0.0,97,0.00,,,0.00,Wunderground v.1.15,2013-02-17 09:55:00,
2013-02-17 02:00:00,27.6,26.9,30.01,SW,233,0.0,0.0,97,0.00,,,0.00,Wunderground v.1.15,2013-02-17 10:00:00,
2013-02-17 02:05:00,27.6,26.9,30.01,NW,323,0.0,0.0,97,0.00,,,0.00,Wunderground v.1.15,2013-02-17 10:05:00,
2013-02-17 02:10:00,28.1,27.4,30.00,North,11,0.0,0.0,97,0.00,,,0.00,Wunderground v.1.15,2013-02-17 10:10:00,
2013-02-17 02:15:00,28.9,28.2,30.00,NNE,22,0.0,0.0,97,0.00,,,0.00,Wunderground v.1.15,2013-02-17 10:15:00,
2013-02-17 02:20:00,28.9,28.2,30.00,NNE,26,0.0,0.0,97,0.00,,,0.00,Wunderground v.1.15,2013-02-17 10:20:00,
2013-02-17 02:25:00,28.7,28.0,30.00,NW,316,0.0,0.0,97,0.00,,,0.00,Wunderground v.1.15,2013-02-17 10:25:00,
2013-02-17 02:30:00,28.5,27.5,30.00,WNW,296,0.0,0.0,96,0.00,,,0.00,Wunderground v.1.15,2013-02-17 10:30:00,
2013-02-17 02:35:00,28.4,27.4,30.01,WNW,298,0.0,0.0,96,0.00,,,0.00,Wunderground v.1.15,2013-02-17 10:35:00,
2013-02-17 02:40:00,28.2,27.2,30.01,WNW,298,0.0,0.0,96,0.00,,,0.00,Wunderground v.1.15,2013-02-17 10:40:00,
2013-02-17 02:45:00,28.2,27.2,30.01,WNW,298,0.0,0.0,96,0.00,,,0.00,Wunderground v.1.15,2013-02-17 10:45:00,
2013-02-17 02:50:00,28.6,27.6,30.01,NW,307,0.0,0.0,96,0.00,,,0.00,Wunderground v.1.15,2013-02-17 10:50:00,
2013-02-17 02:55:00,28.7,28.0,30.01,WNW,298,0.0,0.0,97,0.00,,,0.00,Wunderground v.1.15,2013-02-17 10:55:00,
2013-02-17 03:00:00,28.9,28.2,30.01,WNW,284,0.0,0.0,97,0.00,,,0.00,Wunderground v.1.15,2013-02-17 11:00:00,
2013-02-17 03:05:00,29.1,28.4,30.01,WSW,240,0.0,0.0,97,0.00,,,0.00,Wunderground v.1.15,2013-02-17 11:05:00,
2013-02-17 03:10:00,29.2,28.5,30.01,WSW,240,0.0,0.0,97,0.00,,,0.00,Wunderground v.1.15,2013-02-17 11:10:00,
2013-02-17 03:15:00,29.3,28.6,30.01,WSW,240,0.0,0.0,97,0.00,,,0.00,Wunderground v.1.15,2013-02-17 11:15:00,
2013-02-17 03:20:00,29.0,28.3,30.01,SSE,152,0.0,0.0,97,0.00,,,0.00,Wunderground v.1.15,2013-02-17 11:20:00,
2013-02-17 03:25:00,28.9,27.9,30.02,SSE,152,0.0,0.0,96,0.00,,,0.00,Wunderground v.1.15,2013-02-17 11:25:00,
2013-02-17 03:30:00,29.0,28.3,30.01,SSE,152,0.0,0.0,97,0.00,,,0.00,Wunderground v.1.15,2013-02-17 11:30:00,
2013-02-17 03:35:00,29.2,28.5,30.01,SSE,152,0.0,0.0,97,0.00,,,0.00,Wunderground v.1.15,2013-02-17 11:35:00,
2013-02-17 03:40:00,29.5,28.8,30.01,SE,137,0.0,0.0,97,0.00,,,0.00,Wunderground v.1.15,2013-02-17 11:40:00,
2013-02-17 03:45:00,29.6,28.9,30.01,SE,137,0.0,0.0,97,0.00,,,0.00,Wunderground v.1.15,2013-02-17 11:45:00,
2013-02-17 03:50:00,29.9,29.2,30.01,ENE,72,0.0,0.0,97,0.00,,,0.00,Wunderground v.1.15,2013-02-17 11:50:00,
2013-02-17 03:55:00,29.9,29.2,30.02,ENE,72,0.0,0.0,97,0.00,,,0.00,Wunderground v.1.15,2013-02-17 11:55:00,
2013-02-17 04:00:00,29.8,29.1,30.02,ENE,78,0.0,0.0,97,0.00,,,0.00,Wunderground v.1.15,2013-02-17 12:00:00,
2013-02-17 04:05:00,29.7,29.0,30.01,ENE,77,0.0,0.0,97,0.00,,,0.00,Wunderground v.1.15,2013-02-17 12:05:00,
2013-02-17 04:10:00,29.6,28.9,30.01,ENE,78,0.0,0.0,97,0.00,,,0.00,Wunderground v.1.15,2013-02-17 12:10:00,
2013-02-17 04:15:00,29.6,28.9,30.02,ENE,78,0.0,0.0,97,0.00,,,0.00,Wunderground v.1.15,2013-02-17 12:15:00,
2013-02-17 04:25:00,29.5,28.8,30.02,ENE,78,0.0,0.0,97,0.00,,,0.00,Wunderground v.1.15,2013-02-17 12:25:00,
2013-02-17 04:30:00,29.4,28.7,30.02,ENE,78,0.0,0.0,97,0.00,,,0.00,Wunderground v.1.15,2013-02-17 12:30:00,
2013-02-17 04:35:00,29.3,28.3,30.02,ENE,78,0.0,0.0,96,0.00,,,0.00,Wunderground v.1.15,2013-02-17 12:35:00,
2013-02-17 04:40:00,29.4,28.7,30.02,ENE,78,0.0,0.0,97,0.00,,,0.00,Wunderground v.1.15,2013-02-17 12:40:00,
2013-02-17 04:45:00,29.4,28.7,30.02,ENE,62,0.0,0.0,97,0.00,,,0.00,Wunderground v.1.15,2013-02-17 12:45:00,
2013-02-17 04:50:00,29.5,28.8,30.02,ENE,63,0.0,0.0,97,0.00,,,0.00,Wunderground v.1.15,2013-02-17 12:50:00,
2013-02-17 04:55:00,29.4,28.7,30.02,ENE,63,0.0,0.0,97,0.00,,,0.00,Wunderground v.1.15,2013-02-17 12:55:00,
2013-02-17 05:00:00,29.0,28.0,30.02,ENE,63,0.0,0.0,96,0.00,,,0.00,Wunderground v.1.15,2013-02-17 13:00:00,
2013-02-17 05:05:00,28.8,27.8,30.03,ENE,62,0.0,0.0,96,0.00,,,0.00,Wunderground v.1.15,2013-02-17 13:05:00,
2013-02-17 05:10:00,28.6,27.6,30.03,ENE,63,0.0,0.0,96,0.00,,,0.00,Wunderground v.1.15,2013-02-17 13:10:00,
2013-02-17 05:15:00,28.4,27.4,30.02,ENE,63,0.0,0.0,96,0.00,,,0.00,Wunderground v.1.15,2013-02-17 13:15:00,
2013-02-17 05:20:00,28.2,27.2,30.03,ENE,63,0.0,0.0,96,0.00,,,0.00,Wunderground v.1.15,2013-02-17 13:20:00,
2013-02-17 05:25:00,28.1,27.1,30.03,ENE,63,0.0,0.0,96,0.00,,,0.00,Wunderground v.1.15,2013-02-17 13:25:00,
2013-02-17 05:30:00,27.9,26.9,30.03,ENE,63,0.0,0.0,96,0.00,,,0.00,Wunderground v.1.15,2013-02-17 13:30:00,
2013-02-17 05:35:00,27.5,26.5,30.03,ENE,63,0.0,0.0,96,0.00,,,0.00,Wunderground v.1.15,2013-02-17 13:35:00,
2013-02-17 05:40:00,27.2,26.2,30.03,ENE,63,0.0,0.0,96,0.00,,,0.00,Wunderground v.1.15,2013-02-17 13:40:00,
2013-02-17 05:45:00,27.0,26.0,30.03,ENE,63,0.0,0.0,96,0.00,,,0.00,Wunderground v.1.15,2013-02-17 13:45:00,
2013-02-17 05:50:00,27.0,26.0,30.03,ENE,63,0.0,0.0,96,0.00,,,0.00,Wunderground v.1.15,2013-02-17 13:50:00,
2013-02-17 05:55:00,26.9,25.9,30.03,ENE,63,0.0,0.0,96,0.00,,,0.00,Wunderground v.1.15,2013-02-17 13:55:00,
2013-02-17 06:00:00,26.7,25.7,30.04,ENE,63,0.0,0.0,96,0.00,,,0.00,Wunderground v.1.15,2013-02-17 14:00:00,
2013-02-17 06:05:00,26.5,25.5,30.04,ENE,63,0.0,0.0,96,0.00,,,0.00,Wunderground v.1.15,2013-02-17 14:05:00,
2013-02-17 06:10:00,26.5,25.5,30.04,ENE,63,0.0,0.0,96,0.00,,,0.00,Wunderground v.1.15,2013-02-17 14:10:00,
2013-02-17 06:15:00,26.6,25.6,30.04,East,81,0.0,0.0,96,0.00,,,0.00,Wunderground v.1.15,2013-02-17 14:15:00,
2013-02-17 06:20:00,26.8,25.8,30.04,East,79,0.0,0.0,96,0.00,,,0.00,Wunderground v.1.15,2013-02-17 14:20:00,
2013-02-17 06:25:00,27.3,26.6,30.04,ENE,75,0.0,0.0,97,0.00,,,0.00,Wunderground v.1.15,2013-02-17 14:25:00,
2013-02-17 06:35:00,27.8,27.1,30.04,East,96,0.0,0.0,97,0.00,,,0.00,Wunderground v.1.15,2013-02-17 14:35:00,
2013-02-17 06:40:00,28.3,27.6,30.05,East,96,0.0,0.0,97,0.00,,,0.00,Wunderground v.1.15,2013-02-17 14:40:00,
2013-02-17 06:45:00,28.3,27.6,30.05,East,89,0.0,0.0,97,0.00,,,0.00,Wunderground v.1.15,2013-02-17 14:45:00,
2013-02-17 06:50:00,28.5,27.8,30.05,NNE,15,0.0,1.0,97,0.00,,,0.00,Wunderground v.1.15,2013-02-17 14:50:00,
2013-02-17 06:55:00,28.7,28.0,30.05,East,83,0.0,1.0,97,0.00,,,0.00,Wunderground v.1.15,2013-02-17 14:55:00,
2013-02-17 07:00:00,28.5,27.8,30.05,East,94,0.0,0.0,97,0.00,,,0.00,Wunderground v.1.15,2013-02-17 15:00:00,
2013-02-17 07:05:00,28.6,27.9,30.05,North,11,0.0,0.0,97,0.00,,,0.00,Wunderground v.1.15,2013-02-17 15:05:00,
2013-02-17 07:10:00,28.5,27.8,30.05,North,11,0.0,0.0,97,0.00,,,0.00,Wunderground v.1.15,2013-02-17 15:10:00,
2013-02-17 07:15:00,27.8,26.8,30.06,NNE,12,0.0,0.0,96,0.00,,,0.00,Wunderground v.1.15,2013-02-17 15:15:00,
2013-02-17 07:20:00,27.7,26.7,30.06,North,11,0.0,0.0,96,0.00,,,0.00,Wunderground v.1.15,2013-02-17 15:20:00,
2013-02-17 07:25:00,27.4,26.4,30.06,North,11,0.0,0.0,96,0.00,,,0.00,Wunderground v.1.15,2013-02-17 15:25:00,
2013-02-17 07:30:00,27.1,26.1,30.06,North,11,0.0,0.0,96,0.00,,,0.00,Wunderground v.1.15,2013-02-17 15:30:00,
2013-02-17 07:40:00,27.3,26.3,30.07,North,11,0.0,0.0,96,0.00,,,0.00,Wunderground v.1.15,2013-02-17 15:40:00,
2013-02-17 07:45:00,27.0,26.0,30.07,North,11,0.0,0.0,96,0.00,,,0.00,Wunderground v.1.15,2013-02-17 15:45:00,
2013-02-17 07:50:00,27.4,26.4,30.07,North,11,0.0,0.0,96,0.00,,,0.00,Wunderground v.1.15,2013-02-17 15:50:00,
2013-02-17 07:55:00,28.3,27.6,30.07,NNE,12,0.0,0.0,97,0.00,,,0.00,Wunderground v.1.15,2013-02-17 15:55:00,
2013-02-17 08:00:00,29.2,28.5,30.07,NNE,12,0.0,0.0,97,0.00,,,0.00,Wunderground v.1.15,2013-02-17 16:00:00,
2013-02-17 08:05:00,29.4,28.7,30.07,NNE,12,0.0,0.0,97,0.00,,,0.00,Wunderground v.1.15,2013-02-17 16:05:00,
2013-02-17 08:10:00,29.2,28.2,30.07,NNE,18,0.0,0.0,96,0.00,,,0.00,Wunderground v.1.15,2013-02-17 16:10:00,
2013-02-17 08:15:00,29.7,28.7,30.07,NNE,15,0.0,0.0,96,0.00,,,0.00,Wunderground v.1.15,2013-02-17 16:15:00,
2013-02-17 08:20:00,29.8,28.8,30.07,NNE,18,0.0,0.0,96,0.00,,,0.00,Wunderground v.1.15,2013-02-17 16:20:00,
2013-02-17 08:25:00,29.4,28.4,30.07,ENE,78,0.0,0.0,96,0.00,,,0.00,Wunderground v.1.15,2013-02-17 16:25:00,
2013-02-17 08:30:00,29.0,28.0,30.07,ESE,111,0.0,0.0,96,0.00,,,0.00,Wunderground v.1.15,2013-02-17 16:30:00,
2013-02-17 08:35:00,29.0,28.0,30.07,ESE,111,0.0,0.0,96,0.00,,,0.00,Wunderground v.1.15,2013-02-17 16:35:00,
2013-02-17 08:40:00,30.1,29.1,30.07,ESE,112,0.0,0.0,96,0.00,,,0.00,Wunderground v.1.15,2013-02-17 16:40:00,
2013-02-17 08:45:00,30.8,30.0,30.07,ESE,111,0.0,0.0,97,0.00,,,0.00,Wunderground v.1.15,2013-02-17 16:45:00,
2013-02-17 08:50:00,30.9,29.9,30.07,ESE,111,0.0,0.0,96,0.00,,,0.00,Wunderground v.1.15,2013-02-17 16:50:00,
2013-02-17 08:55:00,31.1,30.1,30.07,East,95,0.0,0.0,96,0.00,,,0.00,Wunderground v.1.15,2013-02-17 16:55:00,
2013-02-17 09:00:00,31.4,30.4,30.07,East,93,0.0,0.0,96,0.00,,,0.00,Wunderground v.1.15,2013-02-17 17:00:00,
2013-02-17 09:05:00,31.7,30.4,30.07,East,86,1.0,1.0,95,0.00,,,0.00,Wunderground v.1.15,2013-02-17 17:05:00,
2013-02-17 09:10:00,32.2,30.9,30.06,East,93,0.0,2.0,95,0.00,,,0.00,Wunderground v.1.15,2013-02-17 17:10:00,
2013-02-17 09:15:00,32.6,31.1,30.06,East,99,1.0,2.0,94,0.00,,,0.00,Wunderground v.1.15,2013-02-17 17:15:00,
2013-02-17 09:20:00,33.2,31.4,30.07,NE,56,1.0,1.0,93,0.00,,,0.00,Wunderground v.1.15,2013-02-17 17:20:00,
2013-02-17 09:25:00,33.7,31.6,30.07,East,92,0.0,1.0,92,0.00,,,0.00,Wunderground v.1.15,2013-02-17 17:25:00,
2013-02-17 09:30:00,34.1,31.7,30.06,East,94,0.0,0.0,91,0.00,,,0.00,Wunderground v.1.15,2013-02-17 17:30:00,
2013-02-17 09:35:00,34.4,31.8,30.06,ESE,115,0.0,0.0,90,0.00,,,0.00,Wunderground v.1.15,2013-02-17 17:35:00,
2013-02-17 09:45:00,35.1,31.9,30.07,SSE,159,0.0,0.0,88,0.00,,,0.00,Wunderground v.1.15,2013-02-17 17:45:00,
2013-02-17 09:50:00,35.8,32.0,30.07,SE,139,0.0,0.0,86,0.00,,,0.00,Wunderground v.1.15,2013-02-17 17:50:00,
2013-02-17 09:55:00,36.4,32.6,30.07,SE,138,0.0,0.0,86,0.00,,,0.00,Wunderground v.1.15,2013-02-17 17:55:00,
2013-02-17 10:00:00,36.6,32.2,30.07,SE,146,0.0,1.0,84,0.00,,,0.00,Wunderground v.1.15,2013-02-17 18:00:00,
2013-02-17 10:05:00,37.0,32.6,30.07,SSE,149,0.0,1.0,84,0.00,,,0.00,Wunderground v.1.15,2013-02-17 18:05:00,
2013-02-17 10:10:00,37.5,33.1,30.07,SSE,155,0.0,2.0,84,0.00,,,0.00,Wunderground v.1.15,2013-02-17 18:10:00,
2013-02-17 10:15:00,37.4,32.4,30.07,ESE,117,1.0,2.0,82,0.00,,,0.00,Wunderground v.1.15,2013-02-17 18:15:00,
2013-02-17 10:20:00,37.4,33.0,30.07,SSE,150,1.0,1.0,84,0.00,,,0.00,Wunderground v.1.15,2013-02-17 18:20:00,
2013-02-17 10:25:00,37.7,32.7,30.07,SE,135,1.0,1.0,82,0.00,,,0.00,Wunderground v.1.15,2013-02-17 18:25:00,
2013-02-17 10:30:00,38.1,33.4,30.07,East,85,1.0,1.0,83,0.00,,,0.00,Wunderground v.1.15,2013-02-17 18:30:00,
2013-02-17 10:35:00,38.3,33.0,30.07,ESE,117,1.0,1.0,81,0.00,,,0.00,Wunderground v.1.15,2013-02-17 18:35:00,
2013-02-17 10:40:00,38.1,32.8,30.07,SSE,159,1.0,2.0,81,0.00,,,0.00,Wunderground v.1.15,2013-02-17 18:40:00,
2013-02-17 10:50:00,38.3,32.7,30.07,East,83,1.0,4.0,80,0.00,,,0.00,Wunderground v.1.15,2013-02-17 18:50:00,
2013-02-17 10:55:00,38.1,32.5,30.07,SE,126,2.0,4.0,80,0.00,,,0.00,Wunderground v.1.15,2013-02-17 18:55:00,
2013-02-17 11:00:00,38.2,32.6,30.07,ESE,113,2.0,2.0,80,0.00,,,0.00,Wunderground v.1.15,2013-02-17 19:00:00,
2013-02-17 11:05:00,37.8,32.5,30.07,SE,132,1.0,2.0,81,0.00,,,0.00,Wunderground v.1.15,2013-02-17 19:05:00,
2013-02-17 11:15:00,38.2,32.6,30.07,ESE,105,1.0,2.0,80,0.00,,,0.00,Wunderground v.1.15,2013-02-17 19:15:00,
2013-02-17 11:20:00,38.7,32.4,30.07,SE,129,1.0,1.0,78,0.00,,,0.00,Wunderground v.1.15,2013-02-17 19:20:00,
2013-02-17 11:25:00,39.2,33.2,30.07,SE,135,1.0,1.0,79,0.00,,,0.00,Wunderground v.1.15,2013-02-17 19:25:00,
2013-02-17 11:30:00,39.3,32.4,30.07,East,81,1.0,1.0,76,0.00,,,0.01,Wunderground v.1.15,2013-02-17 19:30:00,
2013-02-17 11:35:00,40.0,33.4,30.07,SE,137,1.0,1.0,77,0.00,,,0.01,Wunderground v.1.15,2013-02-17 19:35:00,
2013-02-17 11:40:00,40.2,33.6,30.07,NE,46,1.0,2.0,77,0.00,,,0.01,Wunderground v.1.15,2013-02-17 19:40:00,
2013-02-17 11:45:00,40.6,33.0,30.06,ESE,115,2.0,2.0,74,0.00,,,0.01,Wunderground v.1.15,2013-02-17 19:45:00,
2013-02-17 11:50:00,41.1,33.1,30.06,ESE,119,2.0,2.0,73,0.00,,,0.01,Wunderground v.1.15,2013-02-17 19:50:00,
2013-02-17 11:55:00,41.6,33.2,30.06,SSE,154,1.0,2.0,72,0.00,,,0.01,Wunderground v.1.15,2013-02-17 19:55:00,
2013-02-17 12:00:00,41.9,32.1,30.06,North,10,2.0,2.0,68,0.00,,,0.01,Wunderground v.1.15,2013-02-17 20:00:00,
2013-02-17 12:05:00,42.2,32.4,30.06,North,8,2.0,5.0,68,0.00,,,0.01,Wunderground v.1.15,2013-02-17 20:05:00,
2013-02-17 12:10:00,42.9,31.9,30.06,SW,214,1.0,5.0,65,0.00,,,0.01,Wunderground v.1.15,2013-02-17 20:10:00,
2013-02-17 12:15:00,43.5,32.1,30.06,SE,142,2.0,5.0,64,0.00,,,0.01,Wunderground v.1.15,2013-02-17 20:15:00,
2013-02-17 12:20:00,43.5,31.3,30.06,SSE,168,2.0,2.0,62,0.00,,,0.01,Wunderground v.1.15,2013-02-17 20:20:00,
2013-02-17 12:25:00,42.9,31.6,30.06,NW,312,2.0,4.0,64,0.00,,,0.01,Wunderground v.1.15,2013-02-17 20:25:00,
2013-02-17 12:30:00,42.4,30.7,30.06,ESE,120,2.0,2.0,63,0.00,,,0.01,Wunderground v.1.15,2013-02-17 20:30:00,
2013-02-17 12:35:00,43.4,31.2,30.06,SW,226,1.0,5.0,62,0.00,,,0.01,Wunderground v.1.15,2013-02-17 20:35:00,
2013-02-17 12:40:00,44.3,31.7,30.06,SE,140,2.0,2.0,61,0.00,,,0.01,Wunderground v.1.15,2013-02-17 20:40:00,
2013-02-17 12:45:00,44.7,30.8,30.06,NNW,337,3.0,3.0,58,0.00,,,0.01,Wunderground v.1.15,2013-02-17 20:45:00,
2013-02-17 12:50:00,44.0,31.0,30.06,SE,138,2.0,4.0,60,0.00,,,0.01,Wunderground v.1.15,2013-02-17 20:50:00,
2013-02-17 12:55:00,43.3,30.3,30.06,NNE,32,2.0,4.0,60,0.00,,,0.01,Wunderground v.1.15,2013-02-17 20:55:00,
2013-02-17 13:00:00,42.9,30.0,30.05,SSE,159,2.0,2.0,60,0.00,,,0.01,Wunderground v.1.15,2013-02-17 21:00:00,
2013-02-17 13:05:00,42.8,30.3,30.05,SE,146,1.0,2.0,61,0.00,,,0.01,Wunderground v.1.15,2013-02-17 21:05:00,
2013-02-17 13:10:00,42.6,30.9,30.05,SSE,167,1.0,1.0,63,0.00,,,0.01,Wunderground v.1.15,2013-02-17 21:10:00,
2013-02-17 13:15:00,42.2,29.3,30.05,ESE,106,0.0,1.0,60,0.00,,,0.01,Wunderground v.1.15,2013-02-17 21:15:00,
2013-02-17 13:20:00,42.1,29.2,30.05,NW,321,1.0,1.0,60,0.00,,,0.01,Wunderground v.1.15,2013-02-17 21:20:00,
2013-02-17 13:25:00,42.3,29.0,30.05,ESE,102,1.0,1.0,59,0.00,,,0.01,Wunderground v.1.15,2013-02-17 21:25:00,
2013-02-17 13:30:00,43.0,29.2,30.05,ESE,113,1.0,1.0,58,0.00,,,0.01,Wunderground v.1.15,2013-02-17 21:30:00,
2013-02-17 13:35:00,44.1,29.8,30.05,SE,145,1.0,1.0,57,0.00,,,0.01,Wunderground v.1.15,2013-02-17 21:35:00,
2013-02-17 13:40:00,45.4,29.3,30.05,NW,318,1.0,2.0,53,0.00,,,0.01,Wunderground v.1.15,2013-02-17 21:40:00,
2013-02-17 13:45:00,46.0,28.4,30.04,NW,321,2.0,2.0,50,0.00,,,0.01,Wunderground v.1.15,2013-02-17 21:45:00,
2013-02-17 13:50:00,46.5,28.3,30.04,South,186,2.0,5.0,49,0.00,,,0.01,Wunderground v.1.15,2013-02-17 21:50:00,
2013-02-17 13:55:00,46.9,27.2,30.04,NNE,27,2.0,5.0,46,0.00,,,0.01,Wunderground v.1.15,2013-02-17 21:55:00,
2013-02-17 14:00:00,46.7,25.9,30.04,NE,47,3.0,3.0,44,0.00,,,0.01,Wunderground v.1.15,2013-02-17 22:00:00,
2013-02-17 14:05:00,47.0,25.1,30.05,WSW,256,3.0,5.0,42,0.00,,,0.01,Wunderground v.1.15,2013-02-17 22:05:00,
2013-02-17 14:10:00,46.4,26.2,30.04,South,176,2.0,2.0,45,0.00,,,0.01,Wunderground v.1.15,2013-02-17 22:10:00,
2013-02-17 14:15:00,45.5,24.3,30.04,ESE,122,2.0,4.0,43,0.00,,,0.01,Wunderground v.1.15,2013-02-17 22:15:00,
2013-02-17 14:20:00,44.7,25.2,30.04,NNW,333,2.0,4.0,46,0.00,,,0.01,Wunderground v.1.15,2013-02-17 22:20:00,
2013-02-17 14:25:00,43.9,24.9,30.05,SW,225,2.0,4.0,47,0.00,,,0.01,Wunderground v.1.15,2013-02-17 22:25:00,
2013-02-17 14:35:00,43.1,26.7,30.05,West,262,2.0,5.0,52,0.00,,,0.01,Wunderground v.1.15,2013-02-17 22:35:00,
2013-02-17 14:40:00,42.8,25.4,30.05,SW,235,2.0,2.0,50,0.00,,,0.01,Wunderground v.1.15,2013-02-17 22:40:00,
2013-02-17 14:45:00,42.4,25.5,30.05,SSE,167,1.0,2.0,51,0.00,,,0.01,Wunderground v.1.15,2013-02-17 22:45:00,
2013-02-17 14:50:00,41.8,27.2,30.05,North,357,0.0,0.0,56,0.00,,,0.01,Wunderground v.1.15,2013-02-17 22:50:00,
2013-02-17 14:55:00,41.6,25.3,30.05,WNW,295,0.0,0.0,52,0.00,,,0.01,Wunderground v.1.15,2013-02-17 22:55:00,
2013-02-17 15:00:00,41.4,26.4,30.05,ENE,60,1.0,1.0,55,0.00,,,0.01,Wunderground v.1.15,2013-02-17 23:00:00,
2013-02-17 15:06:00,41.7,26.7,30.05,WSW,245,0.0,1.0,55,0.00,,,0.01,Wunderground v.1.15,2013-02-17 23:06:00,
2013-02-17 15:10:00,41.4,27.7,30.05,SSE,152,0.0,0.0,58,0.00,,,0.01,Wunderground v.1.15,2013-02-17 23:10:00,
2013-02-17 15:15:00,41.0,28.6,30.05,East,89,0.0,1.0,61,0.00,,,0.01,Wunderground v.1.15,2013-02-17 23:15:00,
2013-02-17 15:20:00,41.3,26.3,30.05,NNE,19,0.0,0.0,55,0.00,,,0.01,Wunderground v.1.15,2013-02-17 23:20:00,
2013-02-17 15:25:00,41.2,27.9,30.05,SSW,211,0.0,0.0,59,0.00,,,0.01,Wunderground v.1.15,2013-02-17 23:25:00,
2013-02-17 15:30:00,41.2,28.8,30.05,SSE,156,0.0,0.0,61,0.00,,,0.01,Wunderground v.1.15,2013-02-17 23:30:00,
2013-02-17 15:35:00,41.2,25.8,30.05,NW,312,0.0,0.0,54,0.00,,,0.01,Wunderground v.1.15,2013-02-17 23:35:00,
2013-02-17 15:45:00,40.6,24.8,30.06,ENE,57,0.0,1.0,53,0.00,,,0.01,Wunderground v.1.15,2013-02-17 23:45:00,
2013-02-17 15:50:00,40.7,24.4,30.06,West,280,0.0,0.0,52,0.00,,,0.01,Wunderground v.1.15,2013-02-17 23:50:00,
2013-02-17 15:55:00,40.4,27.6,30.06,West,262,1.0,1.0,60,0.00,,,0.01,Wunderground v.1.15,2013-02-17 23:55:00,
2013-02-17 16:00:00,40.1,25.6,30.06,WNW,296,1.0,1.0,56,0.00,,,0.01,Wunderground v.1.15,2013-02-18 00:00:00,
2013-02-17 16:05:00,39.4,27.5,30.06,North,6,0.0,1.0,62,0.00,,,0.01,Wunderground v.1.15,2013-02-18 00:05:00,
2013-02-17 16:15:00,39.0,27.5,30.06,ESE,117,0.0,0.0,63,0.00,,,0.01,Wunderground v.1.15,2013-02-18 00:15:00,
2013-02-17 16:20:00,39.5,25.9,30.06,ESE,119,0.0,0.0,58,0.00,,,0.01,Wunderground v.1.15,2013-02-18 00:20:00,
2013-02-17 16:25:00,39.9,22.7,30.06,West,281,1.0,1.0,50,0.00,,,0.01,Wunderground v.1.15,2013-02-18 00:25:00,
2013-02-17 16:30:00,39.5,26.3,30.06,WNW,287,0.0,0.0,59,0.00,,,0.01,Wunderground v.1.15,2013-02-18 00:30:00,
2013-02-17 16:35:00,39.6,25.2,30.06,ENE,76,1.0,1.0,56,0.00,,,0.01,Wunderground v.1.15,2013-02-18 00:35:00,
2013-02-17 16:40:00,39.6,23.4,30.06,WNW,301,1.0,1.0,52,0.00,,,0.01,Wunderground v.1.15,2013-02-18 00:40:00,
2013-02-17 16:50:00,38.1,26.6,30.06,West,264,0.0,0.0,63,0.00,,,0.01,Wunderground v.1.15,2013-02-18 00:50:00,
2013-02-17 16:55:00,37.4,25.9,30.06,West,264,0.0,0.0,63,0.00,,,0.01,Wunderground v.1.15,2013-02-18 00:55:00,
2013-02-17 17:00:00,37.6,24.6,30.06,WNW,283,0.0,0.0,59,0.00,,,0.01,Wunderground v.1.15,2013-02-18 01:00:00,
2013-02-17 17:05:00,37.5,27.2,30.06,WNW,290,1.0,1.0,66,0.00,,,0.01,Wunderground v.1.15,2013-02-18 01:05:00,
2013-02-17 17:15:00,36.2,27.0,30.07,NW,316,0.0,0.0,69,0.00,,,0.01,Wunderground v.1.15,2013-02-18 01:15:00,
2013-02-17 17:20:00,35.9,28.1,30.07,WNW,288,0.0,0.0,73,0.00,,,0.01,Wunderground v.1.15,2013-02-18 01:20:00,
2013-02-17 17:25:00,35.8,28.3,30.07,SW,232,0.0,0.0,74,0.00,,,0.01,Wunderground v.1.15,2013-02-18 01:25:00,
2013-02-17 17:30:00,35.3,28.5,30.07,SW,232,0.0,0.0,76,0.00,,,0.01,Wunderground v.1.15,2013-02-18 01:30:00,
2013-02-17 17:35:00,34.9,28.4,30.07,SW,232,0.0,0.0,77,0.00,,,0.01,Wunderground v.1.15,2013-02-18 01:35:00,
2013-02-17 17:40:00,34.5,27.7,30.07,ENE,71,0.0,0.0,76,0.00,,,0.01,Wunderground v.1.15,2013-02-18 01:40:00,
2013-02-17 17:45:00,34.3,28.5,30.07,ENE,71,0.0,0.0,79,0.00,,,0.01,Wunderground v.1.15,2013-02-18 01:45:00,
2013-02-17 17:50:00,33.9,28.4,30.07,ENE,71,0.0,0.0,80,0.00,,,0.01,Wunderground v.1.15,2013-02-18 01:50:00,
2013-02-17 17:55:00,33.6,28.1,30.07,ENE,70,0.0,0.0,80,0.00,,,0.01,Wunderground v.1.15,2013-02-18 01:55:00,
2013-02-17 18:00:00,33.2,26.1,30.07,ENE,71,0.0,0.0,75,0.00,,,0.01,Wunderground v.1.15,2013-02-18 02:00:00,
2013-02-17 18:05:00,33.0,26.3,30.07,NE,51,0.0,0.0,76,0.00,,,0.01,Wunderground v.1.15,2013-02-18 02:05:00,
2013-02-17 18:10:00,32.6,25.6,30.08,NE,51,0.0,0.0,75,0.00,,,0.01,Wunderground v.1.15,2013-02-18 02:10:00,
2013-02-17 18:15:00,32.0,25.9,30.08,NE,51,0.0,0.0,78,0.00,,,0.01,Wunderground v.1.15,2013-02-18 02:15:00,
2013-02-17 18:20:00,31.4,25.3,30.08,NE,51,0.0,0.0,78,0.00,,,0.01,Wunderground v.1.15,2013-02-18 02:20:00,
2013-02-17 18:25:00,30.6,24.6,30.08,NE,51,0.0,0.0,78,0.00,,,0.01,Wunderground v.1.15,2013-02-18 02:25:00,
2013-02-17 18:30:00,30.0,24.6,30.08,NE,51,0.0,0.0,80,0.00,,,0.01,Wunderground v.1.15,2013-02-18 02:30:00,
2013-02-17 18:35:00,29.6,24.2,30.08,NE,51,0.0,0.0,80,0.00,,,0.01,Wunderground v.1.15,2013-02-18 02:35:00,
2013-02-17 18:40:00,29.3,23.9,30.09,NE,51,0.0,0.0,80,0.00,,,0.01,Wunderground v.1.15,2013-02-18 02:40:00,
2013-02-17 18:45:00,28.9,24.1,30.08,NE,51,0.0,0.0,82,0.00,,,0.01,Wunderground v.1.15,2013-02-18 02:45:00,
2013-02-17 18:50:00,28.5,24.0,30.09,NE,51,0.0,0.0,83,0.00,,,0.01,Wunderground v.1.15,2013-02-18 02:50:00,
2013-02-17 18:55:00,28.1,23.9,30.09,NE,51,0.0,0.0,84,0.00,,,0.01,Wunderground v.1.15,2013-02-18 02:55:00,
2013-02-17 19:00:00,27.9,24.0,30.09,NE,51,0.0,0.0,85,0.00,,,0.01,Wunderground v.1.15,2013-02-18 03:00:00,
2013-02-17 19:05:00,27.9,24.0,30.09,NE,51,0.0,0.0,85,0.00,,,0.01,Wunderground v.1.15,2013-02-18 03:05:00,
2013-02-17 19:10:00,27.8,23.9,30.09,NE,51,0.0,0.0,85,0.00,,,0.01,Wunderground v.1.15,2013-02-18 03:10:00,
2013-02-17 19:15:00,27.6,23.7,30.09,NE,51,0.0,0.0,85,0.00,,,0.01,Wunderground v.1.15,2013-02-18 03:15:00,
2013-02-17 19:20:00,27.6,24.0,30.10,NE,51,0.0,0.0,86,0.00,,,0.01,Wunderground v.1.15,2013-02-18 03:20:00,
2013-02-17 19:25:00,27.5,23.9,30.10,NE,51,0.0,0.0,86,0.00,,,0.01,Wunderground v.1.15,2013-02-18 03:25:00,
2013-02-17 19:30:00,27.5,24.1,30.10,NE,51,0.0,0.0,87,0.00,,,0.01,Wunderground v.1.15,2013-02-18 03:30:00,
2013-02-17 19:35:00,27.6,24.5,30.10,NE,51,0.0,0.0,88,0.00,,,0.01,Wunderground v.1.15,2013-02-18 03:35:00,
2013-02-17 19:40:00,27.9,24.8,30.10,NE,52,0.0,0.0,88,0.00,,,0.01,Wunderground v.1.15,2013-02-18 03:40:00,
2013-02-17 19:45:00,28.0,24.6,30.10,SSE,153,0.0,0.0,87,0.00,,,0.01,Wunderground v.1.15,2013-02-18 03:45:00,
2013-02-17 19:50:00,28.0,24.6,30.10,SSE,153,0.0,0.0,87,0.00,,,0.01,Wunderground v.1.15,2013-02-18 03:50:00,
2013-02-17 19:55:00,28.0,24.6,30.10,SSE,153,0.0,0.0,87,0.00,,,0.01,Wunderground v.1.15,2013-02-18 03:55:00,
2013-02-17 20:00:00,27.7,24.3,30.10,SSE,153,0.0,0.0,87,0.00,,,0.01,Wunderground v.1.15,2013-02-18 04:00:00,
2013-02-17 20:05:00,27.4,24.0,30.10,SSE,153,0.0,0.0,87,0.00,,,0.01,Wunderground v.1.15,2013-02-18 04:05:00,
2013-02-17 20:10:00,27.1,24.0,30.11,SSE,154,0.0,0.0,88,0.00,,,0.01,Wunderground v.1.15,2013-02-18 04:10:00,
2013-02-17 20:15:00,26.9,23.8,30.11,SSE,153,0.0,0.0,88,0.00,,,0.01,Wunderground v.1.15,2013-02-18 04:15:00,
2013-02-17 20:20:00,26.9,23.8,30.11,SSE,153,0.0,0.0,88,0.00,,,0.01,Wunderground v.1.15,2013-02-18 04:20:00,
2013-02-17 20:25:00,26.9,23.8,30.11,SSE,154,0.0,0.0,88,0.00,,,0.01,Wunderground v.1.15,2013-02-18 04:25:00,
2013-02-17 20:30:00,26.9,23.8,30.11,SSE,153,0.0,0.0,88,0.00,,,0.01,Wunderground v.1.15,2013-02-18 04:30:00,
2013-02-17 20:35:00,26.8,23.7,30.11,SSE,153,0.0,0.0,88,0.00,,,0.01,Wunderground v.1.15,2013-02-18 04:35:00,
2013-02-17 20:40:00,26.7,23.9,30.11,SSE,153,0.0,0.0,89,0.00,,,0.01,Wunderground v.1.15,2013-02-18 04:40:00,
2013-02-17 20:45:00,26.6,23.8,30.11,SSE,154,0.0,0.0,89,0.00,,,0.01,Wunderground v.1.15,2013-02-18 04:45:00,
2013-02-17 20:50:00,26.5,23.7,30.11,SSE,153,0.0,0.0,89,0.00,,,0.01,Wunderground v.1.15,2013-02-18 04:50:00,
2013-02-17 20:55:00,26.3,23.5,30.11,SSE,154,0.0,0.0,89,0.00,,,0.01,Wunderground v.1.15,2013-02-18 04:55:00,
2013-02-17 21:00:00,26.2,23.4,30.12,SSE,153,0.0,0.0,89,0.00,,,0.01,Wunderground v.1.15,2013-02-18 05:00:00,
2013-02-17 21:05:00,25.8,22.7,30.12,SSE,153,0.0,0.0,88,0.00,,,0.01,Wunderground v.1.15,2013-02-18 05:05:00,
2013-02-17 21:15:00,25.1,22.3,30.12,SSE,153,0.0,0.0,89,0.00,,,0.01,Wunderground v.1.15,2013-02-18 05:15:00,
2013-02-17 21:20:00,24.8,22.3,30.12,SSE,153,0.0,0.0,90,0.00,,,0.01,Wunderground v.1.15,2013-02-18 05:20:00,
2013-02-17 21:25:00,24.6,22.1,30.12,SSE,153,0.0,0.0,90,0.00,,,0.01,Wunderground v.1.15,2013-02-18 05:25:00,
2013-02-17 21:30:00,24.2,21.7,30.12,SSE,153,0.0,0.0,90,0.00,,,0.01,Wunderground v.1.15,2013-02-18 05:30:00,
2013-02-17 21:35:00,23.7,21.2,30.12,SSE,153,0.0,0.0,90,0.00,,,0.01,Wunderground v.1.15,2013-02-18 05:35:00,
2013-02-17 21:40:00,23.6,21.6,30.12,SSE,153,0.0,0.0,92,0.00,,,0.01,Wunderground v.1.15,2013-02-18 05:40:00,
2013-02-17 21:45:00,23.4,21.4,30.12,SSE,153,0.0,0.0,92,0.00,,,0.01,Wunderground v.1.15,2013-02-18 05:45:00,
2013-02-17 21:50:00,23.3,21.3,30.12,SSE,154,0.0,0.0,92,0.00,,,0.01,Wunderground v.1.15,2013-02-18 05:50:00,
2013-02-17 21:55:00,23.1,21.1,30.12,SSE,154,0.0,0.0,92,0.00,,,0.01,Wunderground v.1.15,2013-02-18 05:55:00,
2013-02-17 22:00:00,23.2,21.5,30.13,SSE,153,0.0,0.0,93,0.00,,,0.01,Wunderground v.1.15,2013-02-18 06:00:00,
2013-02-17 22:05:00,23.1,21.1,30.13,SSE,153,0.0,0.0,92,0.00,,,0.01,Wunderground v.1.15,2013-02-18 06:05:00,
2013-02-17 22:10:00,22.9,20.9,30.13,SSE,153,0.0,0.0,92,0.00,,,0.01,Wunderground v.1.15,2013-02-18 06:10:00,
2013-02-17 22:15:00,22.8,20.8,30.13,SSE,153,0.0,0.0,92,0.00,,,0.01,Wunderground v.1.15,2013-02-18 06:15:00,
2013-02-17 22:20:00,22.7,21.0,30.13,SSE,153,0.0,0.0,93,0.00,,,0.01,Wunderground v.1.15,2013-02-18 06:20:00,
2013-02-17 22:25:00,22.7,21.0,30.13,SSE,153,0.0,0.0,93,0.00,,,0.01,Wunderground v.1.15,2013-02-18 06:25:00,
2013-02-17 22:30:00,22.6,20.9,30.13,SSE,153,0.0,0.0,93,0.00,,,0.01,Wunderground v.1.15,2013-02-18 06:30:00,
2013-02-17 22:35:00,22.7,21.2,30.13,SSE,153,0.0,0.0,94,0.00,,,0.01,Wunderground v.1.15,2013-02-18 06:35:00,
2013-02-17 22:45:00,23.4,21.7,30.13,SSE,152,0.0,0.0,93,0.00,,,0.01,Wunderground v.1.15,2013-02-18 06:45:00,
2013-02-17 22:50:00,23.3,21.3,30.13,SSE,152,0.0,0.0,92,0.00,,,0.01,Wunderground v.1.15,2013-02-18 06:50:00,
2013-02-17 22:55:00,23.3,21.3,30.13,SSE,153,0.0,0.0,92,0.00,,,0.01,Wunderground v.1.15,2013-02-18 06:55:00,
2013-02-17 23:00:00,23.6,21.9,30.14,SSE,152,0.0,0.0,93,0.00,,,0.01,Wunderground v.1.15,2013-02-18 07:00:00,
2013-02-17 23:05:00,23.8,22.1,30.14,SSE,152,0.0,0.0,93,0.00,,,0.01,Wunderground v.1.15,2013-02-18 07:05:00,
2013-02-17 23:10:00,23.9,22.2,30.14,SSE,152,0.0,0.0,93,0.00,,,0.01,Wunderground v.1.15,2013-02-18 07:10:00,
2013-02-17 23:15:00,24.1,22.1,30.14,SSE,152,0.0,0.0,92,0.00,,,0.01,Wunderground v.1.15,2013-02-18 07:15:00,
2013-02-17 23:20:00,24.3,22.3,30.14,SSE,152,0.0,0.0,92,0.00,,,0.01,Wunderground v.1.15,2013-02-18 07:20:00,
2013-02-17 23:25:00,24.4,22.4,30.14,SSE,152,0.0,0.0,92,0.00,,,0.01,Wunderground v.1.15,2013-02-18 07:25:00,
2013-02-17 23:30:00,24.5,22.5,30.14,SSE,152,0.0,0.0,92,0.00,,,0.01,Wunderground v.1.15,2013-02-18 07:30:00,
2013-02-17 23:35:00,24.5,22.2,30.14,SSE,152,0.0,0.0,91,0.00,,,0.01,Wunderground v.1.15,2013-02-18 07:35:00,
2013-02-17 23:40:00,24.5,22.2,30.14,SSE,152,0.0,0.0,91,0.00,,,0.01,Wunderground v.1.15,2013-02-18 07:40:00,
2013-02-17 23:45:00,24.4,22.2,30.14,SSE,152,0.0,0.0,91,0.00,,,0.01,Wunderground v.1.15,2013-02-18 07:45:00,
2013-02-17 23:50:00,24.4,22.2,30.14,SSE,152,0.0,0.0,91,0.00,,,0.01,Wunderground v.1.15,2013-02-18 07:50:00,
2013-02-17 23:55:00,24.5,22.5,30.14,SSE,152,0.0,0.0,92,0.00,,,0.01,Wunderground v.1.15,2013-02-18 07:55:00,